createdAt,value
2018-12-17T00:01:37.973Z,84.83
2018-12-17T00:04:03.894Z,80.20
2018-12-17T00:06:29.866Z,85.07
2018-12-17T00:08:55.739Z,96.47
2018-12-17T00:11:21.738Z,83.23
2018-12-17T00:13:47.639Z,103.50
2018-12-17T00:16:13.502Z,72.30
2018-12-17T00:18:39.376Z,69.63
2018-12-17T00:21:05.210Z,71.03
2018-12-17T00:23:31.100Z,76.57
2018-12-17T00:25:56.940Z,73.37
2018-12-17T00:28:22.813Z,65.60
2018-12-17T00:30:48.647Z,76.83
2018-12-17T00:33:14.535Z,78.30
2018-12-17T00:35:40.462Z,82.27
2018-12-17T00:38:06.307Z,70.37
2018-12-17T00:40:32.279Z,68.90
2018-12-17T00:42:58.243Z,69.20
2018-12-17T00:45:31.066Z,64.53
2018-12-17T00:47:56.913Z,76.50
2018-12-17T00:50:22.818Z,67.47
2018-12-17T00:52:48.761Z,82.60
2018-12-17T00:55:14.625Z,67.50
2018-12-17T00:57:40.510Z,80.53
2018-12-17T01:00:07.495Z,79.60
2018-12-17T01:02:33.366Z,87.33
2018-12-17T01:04:59.240Z,71.10
2018-12-17T01:07:27.106Z,69.07
2018-12-17T01:09:53.005Z,83.70
2018-12-17T01:12:18.925Z,98.07
2018-12-17T01:14:44.815Z,72.50
2018-12-17T01:17:10.665Z,85.43
2018-12-17T01:19:36.609Z,93.60
2018-12-17T01:22:02.608Z,74.17
2018-12-17T01:24:28.458Z,80.80
2018-12-17T01:26:54.304Z,85.77
2018-12-17T01:29:20.173Z,88.87
2018-12-17T01:31:46.031Z,92.47
2018-12-17T01:34:11.871Z,85.20
2018-12-17T01:36:37.762Z,88.20
2018-12-17T01:39:04.566Z,87.90
2018-12-17T01:41:30.406Z,94.17
2018-12-17T01:43:56.246Z,103.80
2018-12-17T01:46:22.207Z,103.70
2018-12-17T01:48:48.030Z,83.00
2018-12-17T01:51:13.874Z,99.90
2018-12-17T01:53:39.702Z,105.37
2018-12-17T01:56:05.929Z,105.30
2018-12-17T01:58:31.778Z,82.40
2018-12-17T02:00:57.737Z,89.87
2018-12-17T02:03:23.595Z,79.37
2018-12-17T02:05:49.471Z,100.57
2018-12-17T02:08:15.309Z,98.50
2018-12-17T02:10:41.168Z,97.70
2018-12-17T02:13:07.015Z,84.20
2018-12-17T02:15:32.860Z,85.20
2018-12-17T02:17:58.738Z,80.93
2018-12-17T02:20:24.583Z,82.47
2018-12-17T02:22:50.442Z,79.43
2018-12-17T02:25:16.292Z,85.87
2018-12-17T02:27:42.164Z,76.80
2018-12-17T02:30:08.225Z,74.50
2018-12-17T02:32:34.136Z,85.70
2018-12-17T02:34:59.967Z,76.00
2018-12-17T02:37:25.830Z,85.00
2018-12-17T02:39:51.750Z,80.03
2018-12-17T02:42:17.613Z,102.33
2018-12-17T02:44:46.322Z,82.90
2018-12-17T02:47:12.146Z,86.73
2018-12-17T02:49:38.141Z,86.00
2018-12-17T02:52:04.106Z,83.03
2018-12-17T02:54:29.986Z,94.70
2018-12-17T02:56:55.947Z,67.57
2018-12-17T02:59:21.818Z,84.43
2018-12-17T03:01:47.665Z,84.63
2018-12-17T03:04:13.526Z,83.30
2018-12-17T03:06:39.504Z,95.90
2018-12-17T03:09:05.938Z,89.70
2018-12-17T03:11:31.793Z,75.63
2018-12-17T03:13:57.607Z,80.73
2018-12-17T03:16:23.478Z,76.47
2018-12-17T03:18:49.325Z,79.53
2018-12-17T03:21:15.228Z,92.73
2018-12-17T03:23:41.146Z,77.47
2018-12-17T03:26:07.049Z,99.10
2018-12-17T03:28:32.898Z,86.57
2018-12-17T03:30:58.732Z,81.40
2018-12-17T03:33:24.646Z,79.90
2018-12-17T03:35:50.510Z,85.27
2018-12-17T03:38:16.362Z,79.80
2018-12-17T03:40:42.318Z,65.77
2018-12-17T03:43:08.169Z,67.37
2018-12-17T03:45:34.015Z,68.83
2018-12-17T03:47:59.866Z,62.03
2018-12-17T03:50:25.710Z,65.43
2018-12-17T03:52:51.555Z,71.83
2018-12-17T03:55:17.435Z,73.97
2018-12-17T03:57:43.253Z,69.70
2018-12-17T04:00:09.287Z,64.97
2018-12-17T04:02:35.155Z,91.30
2018-12-17T04:05:01.141Z,77.57
2018-12-17T04:07:27.136Z,74.53
2018-12-17T04:09:53.116Z,69.50
2018-12-17T04:12:18.967Z,74.73
2018-12-17T04:14:44.835Z,81.07
2018-12-17T04:17:10.704Z,84.40
2018-12-17T04:19:36.532Z,82.57
2018-12-17T04:22:02.512Z,86.83
2018-12-17T04:24:28.346Z,81.03
2018-12-17T04:26:54.231Z,68.77
2018-12-17T04:29:20.079Z,75.23
2018-12-17T04:31:45.942Z,89.83
2018-12-17T04:34:11.818Z,77.53
2018-12-17T04:36:37.702Z,73.37
2018-12-17T04:39:04.608Z,78.40
2018-12-17T04:41:30.438Z,74.00
2018-12-17T04:43:56.294Z,74.70
2018-12-17T04:46:22.141Z,53.70
2018-12-17T04:48:47.985Z,65.00
2018-12-17T04:51:13.955Z,63.83
2018-12-17T04:53:39.842Z,63.90
2018-12-17T04:56:05.707Z,56.63
2018-12-17T04:58:31.575Z,61.73
2018-12-17T05:00:57.509Z,61.30
2018-12-17T05:03:23.372Z,64.50
2018-12-17T05:05:49.208Z,60.17
2018-12-17T05:08:15.052Z,63.20
2018-12-17T05:10:40.916Z,59.27
2018-12-17T05:13:06.734Z,71.87
2018-12-17T05:15:32.643Z,64.17
2018-12-17T05:17:58.498Z,73.03
2018-12-17T05:20:24.348Z,63.80
2018-12-17T05:22:50.192Z,92.90
2018-12-17T05:25:16.043Z,66.77
2018-12-17T05:27:41.935Z,71.87
2018-12-17T05:30:08.238Z,80.37
2018-12-17T05:32:34.093Z,69.17
2018-12-17T05:35:00.051Z,79.77
2018-12-17T05:37:25.950Z,75.77
2018-12-17T05:39:52.150Z,84.40
2018-12-17T05:42:18.014Z,75.93
2018-12-17T05:44:43.853Z,73.03
2018-12-17T05:47:09.727Z,70.90
2018-12-17T05:49:35.550Z,64.50
2018-12-17T05:52:01.502Z,60.83
2018-12-17T05:54:27.360Z,65.27
2018-12-17T05:56:53.229Z,73.37
2018-12-17T05:59:19.053Z,75.63
2018-12-17T06:01:44.889Z,76.63
2018-12-17T06:04:10.710Z,75.10
2018-12-17T06:06:36.715Z,62.07
2018-12-17T06:09:05.357Z,73.87
2018-12-17T06:11:31.438Z,420.80
2018-12-17T06:13:57.396Z,352.70
2018-12-17T06:16:23.399Z,204.13
2018-12-17T06:18:49.343Z,110.87
2018-12-17T06:21:15.232Z,80.67
2018-12-17T06:23:41.109Z,75.63
2018-12-17T06:26:06.969Z,75.50
2018-12-17T06:28:32.837Z,85.63
2018-12-17T06:30:58.661Z,70.77
2018-12-17T06:33:24.515Z,83.80
2018-12-17T06:35:50.550Z,63.07
2018-12-17T06:38:16.450Z,73.50
2018-12-17T06:40:42.282Z,69.47
2018-12-17T06:43:08.161Z,68.70
2018-12-17T06:45:33.979Z,71.70
2018-12-17T06:47:59.848Z,78.53
2018-12-17T06:50:25.707Z,84.30
2018-12-17T06:52:51.586Z,75.03
2018-12-17T06:55:17.434Z,78.07
2018-12-17T06:57:43.378Z,77.03
2018-12-17T07:00:09.345Z,71.17
2018-12-17T07:02:35.205Z,65.87
2018-12-17T07:05:01.067Z,74.27
2018-12-17T07:07:26.894Z,82.63
2018-12-17T07:09:52.755Z,83.47
2018-12-17T07:12:18.721Z,83.27
2018-12-17T07:14:44.546Z,89.93
2018-12-17T07:17:10.405Z,87.40
2018-12-17T07:19:36.356Z,101.77
2018-12-17T07:22:02.186Z,85.83
2018-12-17T07:24:28.030Z,101.57
2018-12-17T07:26:53.943Z,87.73
2018-12-17T07:29:19.797Z,93.40
2018-12-17T07:31:45.711Z,98.50
2018-12-17T07:34:11.582Z,104.30
2018-12-17T07:36:37.493Z,94.13
2018-12-17T07:39:05.067Z,100.67
2018-12-17T07:41:30.943Z,95.00
2018-12-17T07:43:56.799Z,96.37
2018-12-17T07:46:22.651Z,94.03
2018-12-17T07:51:41.281Z,91.10
2018-12-17T07:54:07.147Z,85.57
2018-12-17T07:56:32.995Z,85.13
2018-12-17T07:58:58.837Z,106.47
2018-12-17T08:01:24.762Z,104.13
2018-12-17T08:03:50.646Z,98.67
2018-12-17T08:06:16.531Z,104.03
2018-12-17T08:08:42.433Z,94.37
2018-12-17T08:11:08.259Z,90.27
2018-12-17T08:13:34.188Z,75.53
2018-12-17T08:16:00.163Z,87.10
2018-12-17T08:18:26.034Z,79.60
2018-12-17T08:20:52.031Z,71.93
2018-12-17T08:23:17.949Z,74.43
2018-12-17T08:25:43.842Z,80.63
2018-12-17T08:28:09.834Z,74.50
2018-12-17T08:30:35.755Z,77.33
2018-12-17T08:33:01.721Z,81.97
2018-12-17T08:35:27.558Z,86.43
2018-12-17T08:37:54.306Z,73.97
2018-12-17T08:40:20.158Z,75.17
2018-12-17T08:42:46.059Z,82.10
2018-12-17T08:45:12.039Z,80.60
2018-12-17T08:47:37.892Z,87.50
2018-12-17T08:50:03.946Z,85.00
2018-12-17T08:52:29.870Z,82.70
2018-12-17T08:54:55.986Z,80.17
2018-12-17T08:57:21.847Z,87.80
2018-12-17T08:59:47.799Z,80.33
2018-12-17T09:02:13.770Z,72.20
2018-12-17T09:04:39.646Z,65.80
2018-12-17T09:07:05.783Z,57.43
2018-12-17T09:09:31.611Z,63.43
2018-12-17T09:11:57.537Z,68.73
2018-12-17T09:14:23.382Z,69.13
2018-12-17T09:16:49.247Z,68.50
2018-12-17T09:19:15.081Z,93.87
2018-12-17T09:21:40.958Z,77.43
2018-12-17T09:24:06.806Z,82.50
2018-12-17T09:26:32.810Z,69.93
2018-12-17T09:28:58.678Z,76.90
2018-12-17T09:31:25.332Z,71.60
2018-12-17T09:33:51.195Z,66.10
2018-12-17T09:36:17.066Z,72.80
2018-12-17T09:38:42.919Z,74.53
2018-12-17T09:41:08.845Z,66.83
2018-12-17T09:43:34.681Z,74.50
2018-12-17T09:46:00.876Z,66.03
2018-12-17T09:48:27.726Z,64.10
2018-12-17T09:50:53.606Z,61.20
2018-12-17T09:53:19.511Z,57.43
2018-12-17T09:55:45.366Z,65.77
2018-12-17T09:58:11.213Z,65.80
2018-12-17T10:00:37.078Z,75.60
2018-12-17T10:03:02.998Z,68.63
2018-12-17T10:05:28.850Z,67.20
2018-12-17T10:07:54.743Z,66.57
2018-12-17T10:10:20.736Z,65.53
2018-12-17T10:12:46.643Z,64.50
2018-12-17T10:15:12.709Z,72.57
2018-12-17T10:17:38.563Z,64.77
2018-12-17T10:20:04.619Z,75.70
2018-12-17T10:22:30.518Z,72.03
2018-12-17T10:24:56.503Z,67.47
2018-12-17T10:27:22.471Z,79.10
2018-12-17T10:29:49.051Z,72.80
2018-12-17T10:32:14.903Z,83.20
2018-12-17T10:34:40.769Z,86.80
2018-12-17T10:37:06.643Z,68.53
2018-12-17T10:39:32.631Z,60.90
2018-12-17T10:41:59.084Z,78.53
2018-12-17T10:44:25.040Z,64.30
2018-12-17T10:46:50.896Z,65.30
2018-12-17T10:49:16.781Z,67.63
2018-12-17T10:51:42.610Z,70.93
2018-12-17T10:54:08.697Z,80.93
2018-12-17T10:56:34.591Z,64.80
2018-12-17T10:59:00.995Z,67.90
2018-12-17T11:01:29.944Z,58.87
2018-12-17T11:03:57.932Z,68.10
2018-12-17T11:06:23.790Z,77.93
2018-12-17T11:08:49.739Z,72.97
2018-12-17T11:11:15.733Z,159.97
2018-12-17T11:13:41.804Z,76.53
2018-12-17T11:16:07.758Z,83.83
2018-12-17T11:18:33.616Z,71.33
2018-12-17T11:20:59.562Z,88.13
2018-12-17T11:23:25.420Z,62.37
2018-12-17T11:25:52.368Z,57.20
2018-12-17T11:28:18.438Z,57.70
2018-12-17T11:30:46.657Z,64.37
2018-12-17T11:33:12.574Z,66.87
2018-12-17T11:35:38.818Z,55.70
2018-12-17T11:38:04.728Z,59.03
2018-12-17T11:40:30.590Z,59.53
2018-12-17T11:42:56.573Z,52.57
2018-12-17T11:45:22.542Z,56.07
2018-12-17T11:47:48.406Z,62.73
2018-12-17T11:50:14.262Z,59.40
2018-12-17T11:52:40.247Z,62.10
2018-12-17T11:55:06.251Z,63.20
2018-12-17T11:57:52.914Z,73.33
2018-12-17T12:00:21.145Z,53.50
2018-12-17T12:02:47.076Z,62.13
2018-12-17T12:05:12.931Z,58.47
2018-12-17T12:07:38.806Z,54.07
2018-12-17T12:10:05.426Z,56.17
2018-12-17T12:12:31.310Z,60.23
2018-12-17T12:14:57.159Z,66.27
2018-12-17T12:17:23.025Z,52.27
2018-12-17T12:19:48.892Z,71.00
2018-12-17T12:22:14.731Z,56.97
2018-12-17T12:24:40.669Z,63.07
2018-12-17T12:27:06.503Z,61.53
2018-12-17T12:29:32.406Z,56.23
2018-12-17T12:31:58.227Z,51.83
2018-12-17T12:34:24.090Z,60.33
2018-12-17T12:36:50.057Z,63.07
2018-12-17T12:39:15.930Z,58.67
2018-12-17T12:41:41.778Z,63.70
2018-12-17T12:44:08.872Z,53.80
2018-12-17T12:46:35.127Z,58.10
2018-12-17T12:49:01.010Z,60.20
2018-12-17T12:51:32.550Z,44.70
2018-12-17T12:53:55.030Z,61.07
2018-12-17T12:56:21.001Z,60.30
2018-12-17T12:58:46.869Z,54.30
2018-12-17T13:01:12.715Z,60.30
2018-12-17T13:03:38.586Z,45.17
2018-12-17T13:06:04.594Z,48.80
2018-12-17T13:08:30.656Z,55.83
2018-12-17T13:10:56.516Z,49.70
2018-12-17T13:13:22.329Z,47.20
2018-12-17T13:15:48.177Z,42.87
2018-12-17T13:18:14.921Z,56.63
2018-12-17T13:20:40.782Z,52.63
2018-12-17T13:23:07.622Z,55.20
2018-12-17T13:25:36.707Z,50.80
2018-12-17T13:28:02.546Z,56.37
2018-12-17T13:30:28.395Z,55.10
2018-12-17T13:32:54.907Z,58.57
2018-12-17T13:35:20.766Z,50.17
2018-12-17T13:37:48.476Z,55.23
2018-12-17T13:40:14.518Z,61.53
2018-12-17T13:42:40.367Z,57.03
2018-12-17T13:45:06.442Z,51.40
2018-12-17T13:47:32.426Z,54.27
2018-12-17T13:50:00.290Z,56.53
2018-12-17T13:52:32.354Z,51.50
2018-12-17T13:54:58.199Z,57.53
2018-12-17T13:57:24.084Z,45.80
2018-12-17T13:59:49.928Z,45.70
2018-12-17T14:02:15.775Z,41.23
2018-12-17T14:07:49.859Z,50.50
2018-12-17T14:10:21.828Z,53.97
2018-12-17T14:12:47.700Z,51.20
2018-12-17T14:15:13.892Z,49.67
2018-12-17T14:17:42.134Z,58.93
2018-12-17T14:20:14.401Z,64.30
2018-12-17T14:22:40.386Z,56.80
2018-12-17T14:25:07.105Z,56.33
2018-12-17T14:27:33.032Z,54.93
2018-12-17T14:29:59.718Z,58.50
2018-12-17T14:32:25.729Z,54.90
2018-12-17T14:34:51.642Z,51.77
2018-12-17T14:37:17.505Z,58.87
2018-12-17T14:39:43.383Z,49.57
2018-12-17T14:42:09.279Z,53.80
2018-12-17T14:44:35.265Z,61.67
2018-12-17T14:47:01.342Z,58.00
2018-12-17T14:49:27.237Z,62.17
2018-12-17T14:51:53.343Z,57.60
2018-12-17T14:54:19.195Z,67.53
2018-12-17T14:56:45.242Z,44.83
2018-12-17T14:59:11.088Z,51.83
2018-12-17T15:01:36.929Z,50.33
2018-12-17T15:04:02.891Z,51.53
2018-12-17T15:06:28.855Z,48.63
2018-12-17T15:08:54.714Z,53.37
2018-12-17T15:11:20.666Z,49.47
2018-12-17T15:13:46.504Z,56.77
2018-12-17T15:16:12.396Z,52.17
2018-12-17T15:18:38.247Z,47.77
2018-12-17T15:21:04.079Z,46.07
2018-12-17T15:23:30.003Z,49.37
2018-12-17T15:25:55.905Z,53.57
2018-12-17T15:28:21.757Z,49.23
2018-12-17T15:30:47.587Z,42.20
2018-12-17T15:33:13.525Z,48.27
2018-12-17T15:35:39.400Z,48.67
2018-12-17T15:38:05.259Z,70.07
2018-12-17T15:40:31.097Z,73.73
2018-12-17T15:42:56.942Z,76.07
2018-12-17T15:45:22.948Z,82.20
2018-12-17T15:47:48.834Z,113.50
2018-12-17T15:50:14.740Z,81.60
2018-12-17T15:52:40.634Z,77.40
2018-12-17T15:55:13.644Z,65.47
2018-12-17T15:57:39.527Z,79.90
2018-12-17T16:00:07.780Z,69.23
2018-12-17T16:02:33.642Z,82.77
2018-12-17T16:04:59.657Z,68.27
2018-12-17T16:07:25.506Z,64.27
2018-12-17T16:09:53.658Z,57.37
2018-12-17T16:12:19.512Z,62.87
2018-12-17T16:14:45.462Z,53.00
2018-12-17T16:17:11.369Z,51.37
2018-12-17T16:19:37.248Z,53.83
2018-12-17T16:22:03.239Z,52.43
2018-12-17T16:24:29.114Z,42.87
2018-12-17T16:26:55.021Z,44.70
2018-12-17T16:29:20.893Z,36.40
2018-12-17T16:31:46.761Z,37.17
2018-12-17T16:34:12.608Z,37.17
2018-12-17T16:36:38.780Z,41.87
2018-12-17T16:39:05.174Z,34.43
2018-12-17T16:41:31.356Z,39.97
2018-12-17T16:43:57.226Z,37.67
2018-12-17T16:46:23.122Z,33.17
2018-12-17T16:48:48.966Z,36.53
2018-12-17T16:51:14.934Z,37.20
2018-12-17T16:53:40.862Z,34.83
2018-12-17T16:56:06.970Z,34.00
2018-12-17T16:58:32.867Z,34.80
2018-12-17T17:00:58.852Z,27.40
2018-12-17T17:03:24.985Z,35.10
2018-12-17T17:05:50.898Z,37.40
2018-12-17T17:08:16.742Z,31.87
2018-12-17T17:10:42.599Z,37.83
2018-12-17T17:13:08.439Z,30.73
2018-12-17T17:15:34.327Z,29.10
2018-12-17T17:18:00.254Z,36.83
2018-12-17T17:20:26.114Z,32.43
2018-12-17T17:22:51.967Z,37.17
2018-12-17T17:25:17.890Z,39.13
2018-12-17T17:27:43.750Z,40.47
2018-12-17T17:30:09.864Z,34.53
2018-12-17T17:32:35.822Z,34.83
2018-12-17T17:35:01.662Z,34.63
2018-12-17T17:37:35.186Z,28.97
2018-12-17T17:40:01.547Z,31.53
2018-12-17T17:42:27.546Z,35.03
2018-12-17T17:44:53.429Z,31.03
2018-12-17T17:47:19.307Z,34.57
2018-12-17T17:49:45.272Z,32.70
2018-12-17T17:52:11.166Z,31.50
2018-12-17T17:54:37.008Z,35.40
2018-12-17T17:57:02.914Z,31.43
2018-12-17T17:59:28.813Z,31.10
2018-12-17T18:01:54.836Z,29.73
2018-12-17T18:04:20.890Z,30.97
2018-12-17T18:06:46.855Z,37.33
2018-12-17T18:09:12.796Z,37.33
2018-12-17T18:11:38.796Z,39.53
2018-12-17T18:14:04.914Z,29.97
2018-12-17T18:16:30.796Z,37.67
2018-12-17T18:18:56.710Z,47.37
2018-12-17T18:21:22.557Z,41.37
2018-12-17T18:23:48.529Z,46.43
2018-12-17T18:26:14.421Z,51.80
2018-12-17T18:28:40.301Z,44.87
2018-12-17T18:31:06.195Z,33.83
2018-12-17T18:33:32.050Z,40.40
2018-12-17T18:35:58.036Z,41.90
2018-12-17T18:38:23.900Z,36.77
2018-12-17T18:40:49.772Z,36.83
2018-12-17T18:43:15.716Z,47.70
2018-12-17T18:45:42.339Z,41.27
2018-12-17T18:48:08.391Z,50.63
2018-12-17T18:50:34.296Z,36.57
2018-12-17T18:53:00.225Z,29.80
2018-12-17T18:55:26.106Z,33.67
2018-12-17T18:57:52.010Z,30.20
2018-12-17T19:00:18.040Z,35.80
2018-12-17T19:02:43.950Z,29.77
2018-12-17T19:05:09.802Z,34.30
2018-12-17T19:07:35.688Z,34.53
2018-12-17T19:10:02.870Z,37.80
2018-12-17T19:12:29.695Z,29.60
2018-12-17T19:14:55.573Z,35.90
2018-12-17T19:17:21.549Z,27.70
2018-12-17T19:19:47.477Z,28.90
2018-12-17T19:22:13.846Z,30.93
2018-12-17T19:24:39.735Z,27.03
2018-12-17T19:27:07.028Z,27.80
2018-12-17T19:29:32.952Z,24.70
2018-12-17T19:31:58.866Z,27.90
2018-12-17T19:34:25.836Z,20.33
2018-12-17T19:36:51.874Z,22.73
2018-12-17T19:39:17.737Z,27.53
2018-12-17T19:41:43.656Z,19.57
2018-12-17T19:44:09.575Z,26.87
2018-12-17T19:46:35.751Z,23.17
2018-12-17T19:49:01.711Z,26.40
2018-12-17T19:51:34.580Z,28.20
2018-12-17T19:54:00.471Z,30.93
2018-12-17T19:56:26.395Z,30.37
2018-12-17T19:58:52.287Z,32.23
2018-12-17T20:01:18.182Z,33.53
2018-12-17T20:03:44.159Z,27.23
2018-12-17T20:06:10.134Z,30.93
2018-12-17T20:08:36.075Z,26.57
2018-12-17T20:11:02.011Z,31.30
2018-12-17T20:13:27.907Z,33.10
2018-12-17T20:15:53.770Z,34.60
2018-12-17T20:18:19.642Z,29.70
2018-12-17T20:20:45.572Z,31.37
2018-12-17T20:23:11.444Z,35.67
2018-12-17T20:25:37.312Z,33.93
2018-12-17T20:28:03.168Z,31.40
2018-12-17T20:30:29.118Z,30.17
2018-12-17T20:32:55.009Z,25.63
2018-12-17T20:35:20.912Z,26.03
2018-12-17T20:37:46.872Z,26.50
2018-12-17T20:40:12.743Z,23.37
2018-12-17T20:42:38.650Z,32.77
2018-12-17T20:45:05.758Z,33.23
2018-12-17T20:47:31.587Z,30.87
2018-12-17T20:49:57.554Z,33.80
2018-12-17T20:52:23.415Z,22.83
2018-12-17T20:54:49.291Z,27.47
2018-12-17T20:57:15.137Z,23.60
2018-12-17T20:59:41.012Z,20.47
2018-12-17T21:02:06.895Z,22.67
2018-12-17T21:04:32.917Z,18.63
2018-12-17T21:06:58.814Z,22.97
2018-12-17T21:09:24.818Z,21.50
2018-12-17T21:11:50.695Z,30.23
2018-12-17T21:14:23.432Z,27.77
2018-12-17T21:16:45.274Z,32.80
2018-12-17T21:22:08.411Z,28.83
2018-12-17T21:24:34.932Z,26.47
2018-12-17T21:27:00.789Z,27.70
2018-12-17T21:29:26.648Z,26.00
2018-12-17T21:31:52.551Z,26.73
2018-12-17T21:34:18.402Z,25.00
2018-12-17T21:36:44.315Z,22.33
2018-12-17T21:39:10.203Z,22.20
2018-12-17T21:41:36.092Z,23.23
2018-12-17T21:44:02.201Z,21.00
2018-12-17T21:46:28.111Z,22.00
2018-12-17T21:48:54.136Z,24.97
2018-12-17T21:51:19.975Z,30.50
2018-12-17T21:53:45.838Z,24.47
2018-12-17T21:56:11.883Z,33.13
2018-12-17T21:58:38.089Z,25.53
2018-12-17T22:01:03.942Z,19.30
2018-12-17T22:03:29.905Z,27.77
2018-12-17T22:05:55.800Z,31.77
2018-12-17T22:08:21.669Z,28.80
2018-12-17T22:10:47.512Z,27.27
2018-12-17T22:13:13.366Z,26.63
2018-12-17T22:15:39.234Z,25.90
2018-12-17T22:18:05.106Z,26.50
2018-12-17T22:20:31.050Z,21.67
2018-12-17T22:22:56.922Z,28.17
2018-12-17T22:25:22.817Z,24.60
2018-12-17T22:27:48.702Z,23.30
2018-12-17T22:30:21.670Z,26.43
2018-12-17T22:32:47.553Z,23.57
2018-12-17T22:35:13.570Z,27.47
2018-12-17T22:37:39.517Z,23.60
2018-12-17T22:40:05.644Z,26.07
2018-12-17T22:42:31.513Z,27.87
2018-12-17T22:44:57.353Z,30.90
2018-12-17T22:47:23.297Z,28.50
2018-12-17T22:49:49.165Z,29.93
2018-12-17T22:52:15.055Z,25.70
2018-12-17T22:54:40.902Z,27.87
2018-12-17T22:57:06.758Z,22.10
2018-12-17T22:59:32.593Z,25.67
2018-12-17T23:01:58.570Z,28.53
2018-12-17T23:04:24.446Z,28.07
2018-12-17T23:06:50.288Z,29.10
2018-12-17T23:09:16.072Z,29.07
2018-12-17T23:12:00.658Z,28.37
2018-12-17T23:14:38.717Z,22.33
2018-12-17T23:17:16.837Z,24.47
2018-12-17T23:19:43.441Z,21.13
2018-12-17T23:22:09.848Z,23.77
2018-12-17T23:24:36.258Z,23.93
2018-12-17T23:27:02.141Z,26.30
2018-12-17T23:29:28.003Z,20.93
2018-12-17T23:31:53.870Z,21.90
2018-12-17T23:34:19.743Z,21.50
2018-12-17T23:36:45.683Z,19.43
2018-12-17T23:39:11.546Z,22.93
2018-12-17T23:41:37.400Z,28.70
2018-12-17T23:44:03.316Z,21.43
2018-12-17T23:46:29.785Z,24.07
2018-12-17T23:48:55.713Z,18.93
2018-12-17T23:51:21.705Z,24.03
2018-12-17T23:53:47.584Z,25.97
2018-12-17T23:56:13.427Z,33.07
2018-12-17T23:58:39.429Z,32.43
